createdAt,value
2023-04-16T00:01:26.275Z,100.00
2023-04-16T00:03:52.960Z,100.00
2023-04-16T00:06:19.672Z,100.00
2023-04-16T00:08:46.236Z,100.00
2023-04-16T00:11:12.711Z,100.00
2023-04-16T00:13:40.248Z,100.00
2023-04-16T00:16:06.956Z,100.00
2023-04-16T00:18:39.455Z,100.00
2023-04-16T00:21:06.689Z,100.00
2023-04-16T00:23:33.196Z,100.00
2023-04-16T00:26:02.232Z,100.00
2023-04-16T00:28:28.721Z,100.00
2023-04-16T00:30:55.751Z,100.00
2023-04-16T00:33:22.323Z,100.00
2023-04-16T00:35:48.922Z,100.00
2023-04-16T00:38:15.451Z,100.00
2023-04-16T00:40:42.030Z,100.00
2023-04-16T00:43:08.496Z,100.00
2023-04-16T00:45:34.936Z,100.00
2023-04-16T00:48:01.619Z,100.00
2023-04-16T00:50:28.115Z,100.00
2023-04-16T00:52:56.592Z,100.00
2023-04-16T00:55:23.009Z,100.00
2023-04-16T00:57:49.386Z,100.00
2023-04-16T01:00:17.819Z,100.00
2023-04-16T01:02:47.356Z,100.00
2023-04-16T01:05:16.054Z,100.00
2023-04-16T01:07:42.436Z,100.00
2023-04-16T01:10:08.987Z,100.00
2023-04-16T01:12:35.381Z,100.00
2023-04-16T01:15:02.018Z,100.00
2023-04-16T01:17:33.580Z,100.00
2023-04-16T01:20:00.580Z,100.00
2023-04-16T01:22:27.818Z,100.00
2023-04-16T01:24:54.258Z,100.00
2023-04-16T01:27:20.609Z,100.00
2023-04-16T01:29:47.028Z,100.00
2023-04-16T01:32:13.361Z,100.00
2023-04-16T01:34:39.766Z,100.00
2023-04-16T01:37:06.116Z,100.00
2023-04-16T01:39:32.558Z,100.00
2023-04-16T01:41:58.958Z,100.00
2023-04-16T01:44:25.630Z,100.00
2023-04-16T01:46:52.118Z,100.00
2023-04-16T01:49:18.583Z,100.00
2023-04-16T01:51:48.213Z,100.00
2023-04-16T01:54:14.618Z,100.00
2023-04-16T01:56:48.388Z,100.00
2023-04-16T01:59:14.766Z,100.00
2023-04-16T02:01:42.451Z,100.00
2023-04-16T02:04:09.297Z,100.00
2023-04-16T02:06:41.814Z,100.00
2023-04-16T02:09:08.544Z,100.00
2023-04-16T02:11:35.086Z,100.00
2023-04-16T02:14:05.471Z,100.00
2023-04-16T02:16:31.889Z,100.00
2023-04-16T02:18:58.284Z,100.00
2023-04-16T02:21:28.904Z,100.00
2023-04-16T02:23:55.431Z,100.00
2023-04-16T02:26:21.799Z,100.00
2023-04-16T02:28:48.215Z,100.00
2023-04-16T02:31:17.930Z,100.00
2023-04-16T02:33:44.375Z,100.00
2023-04-16T02:36:11.312Z,100.00
2023-04-16T02:38:46.982Z,100.00
2023-04-16T02:41:15.336Z,100.00
2023-04-16T02:43:41.708Z,100.00
2023-04-16T02:46:08.159Z,100.00
2023-04-16T02:48:35.271Z,100.00
2023-04-16T02:51:01.723Z,100.00
2023-04-16T02:53:28.118Z,100.00
2023-04-16T02:56:00.245Z,100.00
2023-04-16T02:58:26.707Z,100.00
2023-04-16T03:00:56.276Z,100.00
2023-04-16T03:03:22.900Z,100.00
2023-04-16T03:05:49.330Z,100.00
2023-04-16T03:08:15.817Z,100.00
2023-04-16T03:10:42.206Z,100.00
2023-04-16T03:13:08.603Z,100.00
2023-04-16T03:15:35.065Z,100.00
2023-04-16T03:18:03.680Z,100.00
2023-04-16T03:20:30.357Z,100.00
2023-04-16T03:22:57.262Z,100.00
2023-04-16T03:25:23.670Z,100.00
2023-04-16T03:27:50.046Z,100.00
2023-04-16T03:30:16.544Z,100.00
2023-04-16T03:32:43.100Z,100.00
2023-04-16T03:35:10.234Z,100.00
2023-04-16T03:37:36.644Z,100.00
2023-04-16T03:40:05.115Z,100.00
2023-04-16T03:42:33.711Z,100.00
2023-04-16T03:45:00.770Z,100.00
2023-04-16T03:47:27.225Z,100.00
2023-04-16T03:49:53.675Z,100.00
2023-04-16T03:52:20.049Z,100.00
2023-04-16T03:54:46.416Z,100.00
2023-04-16T03:57:12.797Z,100.00
2023-04-16T03:59:39.138Z,100.00
2023-04-16T04:02:05.676Z,100.00
2023-04-16T04:04:32.797Z,100.00
2023-04-16T04:06:59.254Z,100.00
2023-04-16T04:09:25.733Z,100.00
2023-04-16T04:11:53.201Z,100.00
2023-04-16T04:14:19.644Z,100.00
2023-04-16T04:16:46.279Z,100.00
2023-04-16T04:19:12.768Z,100.00
2023-04-16T04:21:39.210Z,100.00
2023-04-16T04:24:05.615Z,100.00
2023-04-16T04:26:32.065Z,100.00
2023-04-16T04:28:58.511Z,100.00
2023-04-16T04:31:24.945Z,100.00
2023-04-16T04:33:51.357Z,100.00
2023-04-16T04:36:17.826Z,100.00
2023-04-16T04:38:48.361Z,100.00
2023-04-16T04:41:14.750Z,100.00
2023-04-16T04:43:49.710Z,100.00
2023-04-16T04:46:16.172Z,100.00
2023-04-16T04:48:42.725Z,100.00
2023-04-16T04:51:09.086Z,100.00
2023-04-16T04:53:35.631Z,100.00
2023-04-16T04:56:11.657Z,100.00
2023-04-16T04:58:38.961Z,100.00
2023-04-16T05:01:06.769Z,100.00
2023-04-16T05:03:33.275Z,100.00
2023-04-16T05:06:16.870Z,100.00
2023-04-16T05:08:43.223Z,100.00
2023-04-16T05:11:09.634Z,100.00
2023-04-16T05:13:36.063Z,100.00
2023-04-16T05:16:03.533Z,100.00
2023-04-16T05:18:29.939Z,100.00
2023-04-16T05:20:56.362Z,100.00
2023-04-16T05:23:22.733Z,100.00
2023-04-16T05:25:49.141Z,100.00
2023-04-16T05:28:15.619Z,100.00
2023-04-16T05:30:42.060Z,100.00
2023-04-16T05:33:08.467Z,100.00
2023-04-16T05:35:35.196Z,100.00
2023-04-16T05:38:01.532Z,100.00
2023-04-16T05:40:27.956Z,100.00
2023-04-16T05:42:54.285Z,100.00
2023-04-16T05:45:20.728Z,100.00
2023-04-16T05:47:47.187Z,100.00
2023-04-16T05:50:13.681Z,100.00
2023-04-16T05:52:40.116Z,100.00
2023-04-16T05:55:07.150Z,100.00
2023-04-16T05:57:33.576Z,100.00
2023-04-16T05:59:59.960Z,100.00
2023-04-16T06:02:26.517Z,100.00
2023-04-16T06:04:53.045Z,100.00
2023-04-16T06:07:19.398Z,100.00
2023-04-16T06:09:45.830Z,100.00
2023-04-16T06:12:12.490Z,100.00
2023-04-16T06:14:38.894Z,100.00
2023-04-16T06:17:05.594Z,100.00
2023-04-16T06:19:42.128Z,100.00
2023-04-16T06:22:08.737Z,100.00
2023-04-16T06:24:35.133Z,100.00
2023-04-16T06:27:01.684Z,100.00
2023-04-16T06:29:37.387Z,100.00
2023-04-16T06:32:09.118Z,100.00
2023-04-16T06:34:44.561Z,100.00
2023-04-16T06:37:10.985Z,100.00
2023-04-16T06:39:37.359Z,100.00
2023-04-16T06:42:04.145Z,100.00
2023-04-16T06:44:30.662Z,100.00
2023-04-16T06:46:57.083Z,100.00
2023-04-16T06:49:40.360Z,100.00
2023-04-16T06:52:06.855Z,100.00
2023-04-16T06:54:33.275Z,100.00
2023-04-16T06:57:00.269Z,100.00
2023-04-16T06:59:26.655Z,100.00
2023-04-16T07:01:55.298Z,100.00
2023-04-16T07:04:21.886Z,100.00
2023-04-16T07:06:48.384Z,100.00
2023-04-16T07:09:14.757Z,100.00
2023-04-16T07:11:41.797Z,100.00
2023-04-16T07:14:08.275Z,100.00
2023-04-16T07:16:34.777Z,100.00
2023-04-16T07:19:01.223Z,100.00
2023-04-16T07:21:30.202Z,100.00
2023-04-16T07:23:56.579Z,100.00
2023-04-16T07:26:30.455Z,100.00
2023-04-16T07:28:56.829Z,100.00
2023-04-16T07:31:23.382Z,100.00
2023-04-16T07:33:51.019Z,100.00
2023-04-16T07:36:18.546Z,100.00
2023-04-16T07:38:44.897Z,100.00
2023-04-16T07:41:11.304Z,100.00
2023-04-16T07:43:37.662Z,100.00
2023-04-16T07:46:05.139Z,100.00
2023-04-16T07:48:31.672Z,100.00
2023-04-16T07:50:58.181Z,100.00
2023-04-16T07:53:25.945Z,100.00
2023-04-16T07:55:52.401Z,100.00
2023-04-16T07:58:19.837Z,100.00
2023-04-16T08:00:46.310Z,100.00
2023-04-16T08:03:13.044Z,100.00
2023-04-16T08:05:40.660Z,100.00
2023-04-16T08:08:07.079Z,100.00
2023-04-16T08:10:33.775Z,100.00
2023-04-16T08:13:00.570Z,100.00
2023-04-16T08:15:27.411Z,100.00
2023-04-16T08:17:53.877Z,100.00
2023-04-16T08:20:21.404Z,100.00
2023-04-16T08:22:56.990Z,100.00
2023-04-16T08:25:25.349Z,100.00
2023-04-16T08:27:51.754Z,100.00
2023-04-16T08:30:24.003Z,100.00
2023-04-16T08:32:50.714Z,100.00
2023-04-16T08:35:17.241Z,100.00
2023-04-16T08:37:43.666Z,100.00
2023-04-16T08:40:19.189Z,100.00
2023-04-16T08:42:49.728Z,100.00
2023-04-16T08:45:19.264Z,100.00
2023-04-16T08:47:48.400Z,100.00
2023-04-16T08:50:16.590Z,100.00
2023-04-16T08:52:51.660Z,100.00
2023-04-16T08:55:33.869Z,100.00
2023-04-16T08:58:01.372Z,100.00
2023-04-16T09:00:31.711Z,100.00
2023-04-16T09:02:59.352Z,100.00
2023-04-16T09:05:39.528Z,100.00
2023-04-16T09:08:06.793Z,100.00
2023-04-16T09:10:33.575Z,100.00
2023-04-16T09:13:01.314Z,100.00
2023-04-16T09:15:29.534Z,100.00
2023-04-16T09:17:57.588Z,100.00
2023-04-16T09:20:24.286Z,100.00
2023-04-16T09:22:50.816Z,100.00
2023-04-16T09:25:17.438Z,100.00
2023-04-16T09:27:43.882Z,100.00
2023-04-16T09:30:24.571Z,100.00
2023-04-16T09:32:52.342Z,100.00
2023-04-16T09:35:42.522Z,100.00
2023-04-16T09:38:21.177Z,100.00
2023-04-16T09:40:47.761Z,100.00
2023-04-16T09:43:15.458Z,100.00
2023-04-16T09:46:08.744Z,100.00
2023-04-16T09:48:38.283Z,100.00
2023-04-16T09:51:06.234Z,100.00
2023-04-16T09:53:32.735Z,100.00
2023-04-16T09:56:00.389Z,100.00
2023-04-16T09:58:33.155Z,100.00
2023-04-16T10:01:03.274Z,100.00
2023-04-16T10:03:33.249Z,100.00
2023-04-16T10:06:00.973Z,100.00
2023-04-16T10:08:28.221Z,97.01
2023-04-16T10:10:56.457Z,100.00
2023-04-16T10:13:22.931Z,100.00
2023-04-16T10:15:57.985Z,97.40
2023-04-16T10:18:25.418Z,100.00
2023-04-16T10:21:06.221Z,93.25
2023-04-16T10:23:33.309Z,99.97
2023-04-16T10:26:01.458Z,97.31
2023-04-16T10:28:35.678Z,100.00
2023-04-16T10:31:03.539Z,100.00
2023-04-16T10:33:34.512Z,100.00
2023-04-16T10:36:17.433Z,100.00
2023-04-16T10:38:48.083Z,100.00
2023-04-16T10:41:14.725Z,96.18
2023-04-16T10:43:45.351Z,95.32
2023-04-16T10:46:26.301Z,95.87
2023-04-16T10:48:54.518Z,93.20
2023-04-16T10:51:33.994Z,88.71
2023-04-16T10:54:09.293Z,92.98
2023-04-16T10:56:37.247Z,85.24
2023-04-16T10:59:10.060Z,87.71
2023-04-16T11:01:41.165Z,87.88
2023-04-16T11:04:19.684Z,83.85
2023-04-16T11:07:05.689Z,87.59
2023-04-16T11:09:50.569Z,84.81
2023-04-16T11:12:18.399Z,85.39
2023-04-16T11:14:53.050Z,82.39
2023-04-16T11:17:32.303Z,85.62
2023-04-16T11:19:59.965Z,84.40
2023-04-16T11:22:27.481Z,79.08
2023-04-16T11:25:00.868Z,79.46
2023-04-16T11:27:27.378Z,79.23
2023-04-16T11:30:05.389Z,82.00
2023-04-16T11:32:38.615Z,74.62
2023-04-16T11:35:16.893Z,79.01
2023-04-16T11:37:43.942Z,72.49
2023-04-16T11:40:11.609Z,78.37
2023-04-16T11:42:41.076Z,79.79
2023-04-16T11:45:08.463Z,79.51
2023-04-16T11:47:55.398Z,78.60
2023-04-16T11:50:22.999Z,80.67
2023-04-16T11:52:50.041Z,76.99
2023-04-16T11:55:16.727Z,77.02
2023-04-16T11:57:43.377Z,73.67
2023-04-16T12:00:13.003Z,77.68
2023-04-16T12:02:42.662Z,71.76
2023-04-16T12:05:28.681Z,73.70
2023-04-16T12:07:58.179Z,72.64
2023-04-16T12:10:25.073Z,73.86
2023-04-16T12:12:51.954Z,76.09
2023-04-16T12:15:20.367Z,73.93
2023-04-16T12:17:47.900Z,71.26
2023-04-16T12:20:15.706Z,73.27
2023-04-16T12:22:46.544Z,71.65
2023-04-16T12:25:13.274Z,69.96
2023-04-16T12:27:54.104Z,69.10
2023-04-16T12:30:22.673Z,68.39
2023-04-16T12:32:50.113Z,71.08
2023-04-16T12:35:49.389Z,71.22
2023-04-16T12:38:15.891Z,69.53
2023-04-16T12:40:44.412Z,69.17
2023-04-16T12:43:12.278Z,69.65
2023-04-16T12:45:39.445Z,73.32
2023-04-16T12:48:06.006Z,75.56
2023-04-16T12:50:32.486Z,74.45
2023-04-16T12:52:59.322Z,73.13
2023-04-16T12:55:33.754Z,68.55
2023-04-16T12:58:00.183Z,69.58
2023-04-16T13:00:26.655Z,71.94
2023-04-16T13:02:53.233Z,69.80
2023-04-16T13:05:23.821Z,69.51
2023-04-16T13:07:51.239Z,72.36
2023-04-16T13:10:21.118Z,71.11
2023-04-16T13:12:47.533Z,72.59
2023-04-16T13:15:14.033Z,71.99
2023-04-16T13:17:42.615Z,69.57
2023-04-16T13:20:15.016Z,69.79
2023-04-16T13:22:41.394Z,69.63
2023-04-16T13:25:08.200Z,68.58
2023-04-16T13:27:34.636Z,68.90
2023-04-16T13:30:01.305Z,69.13
2023-04-16T13:32:29.778Z,68.70
2023-04-16T13:34:56.324Z,69.57
2023-04-16T13:37:29.699Z,70.88
2023-04-16T13:40:05.426Z,68.39
2023-04-16T13:42:36.094Z,67.62
2023-04-16T13:45:02.809Z,67.67
2023-04-16T13:47:32.257Z,70.29
2023-04-16T13:49:58.780Z,68.42
2023-04-16T13:52:27.206Z,65.51
2023-04-16T13:55:00.141Z,63.25
2023-04-16T13:57:27.110Z,63.00
2023-04-16T13:59:53.552Z,65.96
2023-04-16T14:02:20.558Z,65.23
2023-04-16T14:04:46.967Z,67.44
2023-04-16T14:07:14.380Z,70.88
2023-04-16T14:09:41.124Z,67.04
2023-04-16T14:12:07.722Z,66.16
2023-04-16T14:14:35.221Z,68.54
2023-04-16T14:17:03.315Z,68.00
2023-04-16T14:19:30.186Z,67.54
2023-04-16T14:21:56.576Z,66.14
2023-04-16T14:24:23.033Z,61.74
2023-04-16T14:26:49.476Z,64.23
2023-04-16T14:29:16.187Z,65.02
2023-04-16T14:31:42.673Z,65.24
2023-04-16T14:34:09.728Z,61.51
2023-04-16T14:36:36.556Z,62.89
2023-04-16T14:39:04.725Z,63.73
2023-04-16T14:41:32.169Z,63.07
2023-04-16T14:43:59.165Z,62.36
2023-04-16T14:46:27.124Z,60.62
2023-04-16T14:48:55.746Z,61.48
2023-04-16T14:51:22.127Z,62.35
2023-04-16T14:53:48.538Z,63.34
2023-04-16T14:56:15.949Z,63.78
2023-04-16T14:58:44.481Z,59.51
2023-04-16T15:01:13.671Z,59.54
2023-04-16T15:03:40.446Z,59.00
2023-04-16T15:06:08.676Z,59.48
2023-04-16T15:08:35.457Z,63.24
2023-04-16T15:11:01.855Z,61.23
2023-04-16T15:13:39.100Z,59.67
2023-04-16T15:16:05.631Z,62.07
2023-04-16T15:18:32.671Z,61.48
2023-04-16T15:20:59.105Z,61.46
2023-04-16T15:23:25.676Z,62.00
2023-04-16T15:25:52.070Z,60.65
2023-04-16T15:28:18.475Z,59.08
2023-04-16T15:30:45.037Z,60.85
2023-04-16T15:33:11.890Z,60.13
2023-04-16T15:35:46.818Z,61.33
2023-04-16T15:38:22.261Z,62.21
2023-04-16T15:40:48.669Z,61.30
2023-04-16T15:43:15.740Z,62.16
2023-04-16T15:45:42.168Z,60.73
2023-04-16T15:48:14.325Z,63.37
2023-04-16T15:50:46.303Z,62.39
2023-04-16T15:53:14.779Z,63.02
2023-04-16T15:55:42.141Z,61.73
2023-04-16T15:58:08.680Z,62.64
2023-04-16T16:00:36.191Z,62.94
2023-04-16T16:03:10.333Z,62.00
2023-04-16T16:05:37.848Z,61.44
2023-04-16T16:08:06.547Z,63.48
2023-04-16T16:10:33.833Z,64.35
2023-04-16T16:13:05.374Z,63.88
2023-04-16T16:15:32.912Z,65.92
2023-04-16T16:17:59.505Z,66.59
2023-04-16T16:20:26.089Z,66.15
2023-04-16T16:22:53.689Z,66.51
2023-04-16T16:25:33.746Z,66.78
2023-04-16T16:28:07.188Z,66.77
2023-04-16T16:30:33.663Z,67.98
2023-04-16T16:33:00.141Z,67.57
2023-04-16T16:35:32.566Z,67.40
2023-04-16T16:37:59.430Z,67.13
2023-04-16T16:40:26.655Z,66.70
2023-04-16T16:42:53.111Z,66.84
2023-04-16T16:45:20.065Z,65.61
2023-04-16T16:47:46.851Z,65.33
2023-04-16T16:50:13.606Z,65.60
2023-04-16T16:52:40.138Z,67.24
2023-04-16T16:55:10.837Z,64.09
2023-04-16T16:57:38.260Z,64.44
2023-04-16T17:00:15.178Z,66.36
2023-04-16T17:02:41.741Z,65.55
2023-04-16T17:05:08.415Z,66.59
2023-04-16T17:07:34.840Z,66.74
2023-04-16T17:10:16.277Z,68.94
2023-04-16T17:12:42.662Z,68.77
2023-04-16T17:15:09.373Z,70.50
2023-04-16T17:17:35.979Z,70.14
2023-04-16T17:20:08.241Z,71.05
2023-04-16T17:22:34.707Z,74.27
2023-04-16T17:25:01.937Z,75.03
2023-04-16T17:27:29.475Z,76.98
2023-04-16T17:30:00.157Z,77.17
2023-04-16T17:32:26.947Z,80.18
2023-04-16T17:34:56.372Z,81.15
2023-04-16T17:37:25.031Z,81.01
2023-04-16T17:39:51.568Z,83.57
2023-04-16T17:42:18.007Z,83.77
2023-04-16T17:44:44.798Z,85.01
2023-04-16T17:47:11.230Z,86.33
2023-04-16T17:49:37.674Z,87.77
2023-04-16T17:52:04.488Z,89.27
2023-04-16T17:54:32.983Z,90.81
2023-04-16T17:56:59.426Z,88.83
2023-04-16T17:59:25.969Z,90.13
2023-04-16T18:01:52.504Z,93.27
2023-04-16T18:04:26.550Z,94.64
2023-04-16T18:06:53.081Z,93.99
2023-04-16T18:09:20.596Z,92.27
2023-04-16T18:11:46.987Z,96.25
2023-04-16T18:14:16.839Z,100.00
2023-04-16T18:16:46.318Z,100.00
2023-04-16T18:19:13.123Z,100.00
2023-04-16T18:21:39.738Z,100.00
2023-04-16T18:24:06.685Z,100.00
2023-04-16T18:26:35.637Z,100.00
2023-04-16T18:29:03.971Z,100.00
2023-04-16T18:31:31.624Z,100.00
2023-04-16T18:33:59.237Z,100.00
2023-04-16T18:36:27.223Z,100.00
2023-04-16T18:39:01.649Z,100.00
2023-04-16T18:41:30.936Z,100.00
2023-04-16T18:43:57.511Z,100.00
2023-04-16T18:46:24.161Z,100.00
2023-04-16T18:48:50.783Z,100.00
2023-04-16T18:51:17.276Z,100.00
2023-04-16T18:53:45.443Z,100.00
2023-04-16T18:56:13.278Z,100.00
2023-04-16T18:58:43.311Z,100.00
2023-04-16T19:01:16.930Z,100.00
2023-04-16T19:03:43.522Z,100.00
2023-04-16T19:06:09.961Z,100.00
2023-04-16T19:08:36.459Z,100.00
2023-04-16T19:11:02.869Z,100.00
2023-04-16T19:13:33.637Z,100.00
2023-04-16T19:16:01.530Z,100.00
2023-04-16T19:18:36.076Z,100.00
2023-04-16T19:21:02.526Z,100.00
2023-04-16T19:23:29.273Z,100.00
2023-04-16T19:26:01.739Z,100.00
2023-04-16T19:28:43.740Z,100.00
2023-04-16T19:31:10.186Z,100.00
2023-04-16T19:33:36.648Z,100.00
2023-04-16T19:36:03.125Z,100.00
2023-04-16T19:38:31.670Z,100.00
2023-04-16T19:40:58.754Z,100.00
2023-04-16T19:43:25.308Z,100.00
2023-04-16T19:45:54.823Z,100.00
2023-04-16T19:48:21.505Z,100.00
2023-04-16T19:50:48.592Z,100.00
2023-04-16T19:53:17.369Z,100.00
2023-04-16T19:55:43.900Z,100.00
2023-04-16T19:58:10.623Z,100.00
2023-04-16T20:00:37.919Z,100.00
2023-04-16T20:03:04.891Z,100.00
2023-04-16T20:05:31.900Z,100.00
2023-04-16T20:08:06.598Z,100.00
2023-04-16T20:10:32.969Z,100.00
2023-04-16T20:13:00.205Z,100.00
2023-04-16T20:15:28.654Z,100.00
2023-04-16T20:18:01.094Z,100.00
2023-04-16T20:20:27.523Z,100.00
2023-04-16T20:22:56.008Z,100.00
2023-04-16T20:25:22.797Z,100.00
2023-04-16T20:27:49.311Z,100.00
2023-04-16T20:30:15.867Z,100.00
2023-04-16T20:32:42.291Z,100.00
2023-04-16T20:35:11.568Z,100.00
2023-04-16T20:37:38.611Z,100.00
2023-04-16T20:40:06.386Z,100.00
2023-04-16T20:42:35.122Z,100.00
2023-04-16T20:45:01.602Z,100.00
2023-04-16T20:47:27.992Z,100.00
2023-04-16T20:50:02.262Z,100.00
2023-04-16T20:52:28.721Z,100.00
2023-04-16T20:54:55.367Z,100.00
2023-04-16T20:57:21.752Z,100.00
2023-04-16T20:59:49.151Z,100.00
2023-04-16T21:02:15.745Z,100.00
2023-04-16T21:04:43.002Z,100.00
2023-04-16T21:07:09.837Z,100.00
2023-04-16T21:09:36.273Z,100.00
2023-04-16T21:12:03.280Z,100.00
2023-04-16T21:14:37.767Z,100.00
2023-04-16T21:17:04.246Z,100.00
2023-04-16T21:19:30.993Z,100.00
2023-04-16T21:21:57.955Z,100.00
2023-04-16T21:24:24.415Z,100.00
2023-04-16T21:26:50.818Z,100.00
2023-04-16T21:29:17.232Z,100.00
2023-04-16T21:31:43.707Z,100.00
2023-04-16T21:34:10.182Z,100.00
2023-04-16T21:36:37.228Z,100.00
2023-04-16T21:39:05.743Z,100.00
2023-04-16T21:41:32.177Z,100.00
2023-04-16T21:43:58.616Z,100.00
2023-04-16T21:46:26.431Z,100.00
2023-04-16T21:48:53.677Z,100.00
2023-04-16T21:51:28.853Z,100.00
2023-04-16T21:53:58.479Z,100.00
2023-04-16T21:56:25.879Z,100.00
2023-04-16T21:58:52.324Z,100.00
2023-04-16T22:01:18.823Z,100.00
2023-04-16T22:03:50.745Z,100.00
2023-04-16T22:06:17.360Z,100.00
2023-04-16T22:08:43.778Z,100.00
2023-04-16T22:11:10.282Z,100.00
2023-04-16T22:13:38.161Z,100.00
2023-04-16T22:16:05.728Z,100.00
2023-04-16T22:18:36.113Z,100.00
2023-04-16T22:21:02.800Z,100.00
2023-04-16T22:23:29.392Z,100.00
2023-04-16T22:25:56.111Z,100.00
2023-04-16T22:28:25.557Z,100.00
2023-04-16T22:30:51.962Z,100.00
2023-04-16T22:33:20.341Z,100.00
2023-04-16T22:35:46.752Z,100.00
2023-04-16T22:38:31.590Z,100.00
2023-04-16T22:40:57.981Z,100.00
2023-04-16T22:43:24.407Z,100.00
2023-04-16T22:46:00.390Z,100.00
2023-04-16T22:48:26.767Z,100.00
2023-04-16T22:50:53.200Z,100.00
2023-04-16T22:53:19.597Z,100.00
2023-04-16T22:55:45.984Z,100.00
2023-04-16T22:58:12.381Z,100.00
2023-04-16T23:00:44.054Z,100.00
2023-04-16T23:03:10.766Z,100.00
2023-04-16T23:05:39.225Z,100.00
2023-04-16T23:08:05.729Z,100.00
2023-04-16T23:10:32.172Z,100.00
2023-04-16T23:12:59.608Z,100.00
2023-04-16T23:15:26.375Z,100.00
2023-04-16T23:18:01.863Z,100.00
2023-04-16T23:20:28.835Z,100.00
2023-04-16T23:22:55.211Z,100.00
2023-04-16T23:25:23.540Z,100.00
2023-04-16T23:27:49.972Z,100.00
2023-04-16T23:30:17.438Z,100.00
2023-04-16T23:32:43.787Z,100.00
2023-04-16T23:35:10.220Z,100.00
2023-04-16T23:37:36.654Z,100.00
2023-04-16T23:40:04.024Z,100.00
2023-04-16T23:42:30.555Z,100.00
2023-04-16T23:44:57.032Z,100.00
2023-04-16T23:47:24.512Z,100.00
2023-04-16T23:49:51.052Z,100.00
2023-04-16T23:52:22.490Z,100.00
2023-04-16T23:54:48.884Z,100.00
2023-04-16T23:57:15.560Z,100.00
2023-04-16T23:59:42.075Z,100.00
